Time;durP1;ratioP1;P1;durP2;ratioP2;P2;SDS_P1;SDS_P2;PMS_P1;PMS_P2;Temp;Humidity;BMP_temperature;BMP_pressure;BME280_temperature;BME280_humidity;BME280_pressure;Samples;Min_cycle;Max_cycle;Signal;HPM_P1;HPM_P2
2022/10/16 04:02:38;;;;;;;0.80;0.55;;;12.50;99.90;;;;;;6240650;23;20520;-70
2022/10/16 04:05:05;;;;;;;1.10;1.10;;;12.50;99.90;;;;;;6242621;23;20508;-70
2022/10/16 04:07:32;;;;;;;4.05;0.65;;;12.50;99.90;;;;;;6242510;23;20270;-70
2022/10/16 04:09:59;;;;;;;0.70;0.70;;;12.50;99.90;;;;;;6240570;23;20190;-70
2022/10/16 04:12:25;;;;;;;0.70;0.70;;;12.40;99.90;;;;;;6243835;23;20278;-71
2022/10/16 04:14:52;;;;;;;0.80;0.80;;;12.40;99.90;;;;;;6244731;23;20482;-70
2022/10/16 04:17:19;;;;;;;1.27;0.82;;;12.40;99.90;;;;;;6242730;22;20212;-68
2022/10/16 04:19:47;;;;;;;0.98;0.98;;;12.40;99.90;;;;;;6244484;23;20204;-69
2022/10/16 04:22:14;;;;;;;0.43;0.43;;;12.40;99.90;;;;;;6217128;23;20183;-68
2022/10/16 04:24:41;;;;;;;0.90;0.90;;;12.40;99.90;;;;;;6245055;23;20429;-70
2022/10/16 04:27:07;;;;;;;1.15;0.80;;;12.30;99.90;;;;;;6244229;22;20202;-70
2022/10/16 04:29:34;;;;;;;1.45;0.80;;;12.30;99.90;;;;;;6243395;23;20223;-70
2022/10/16 04:32:01;;;;;;;0.60;0.60;;;12.30;99.90;;;;;;6243465;23;20182;-69
2022/10/16 04:34:27;;;;;;;0.80;0.80;;;12.30;99.90;;;;;;6246864;23;20206;-69
2022/10/16 04:36:55;;;;;;;2.78;0.80;;;12.30;99.90;;;;;;6248250;22;20202;-69
2022/10/16 04:39:22;;;;;;;2.35;0.70;;;12.30;99.90;;;;;;6245725;23;20184;-68
2022/10/16 04:41:49;;;;;;;1.42;1.33;;;12.30;99.90;;;;;;6244568;23;20187;-68
2022/10/16 04:44:15;;;;;;;2.58;0.70;;;12.30;99.90;;;;;;6243753;23;20199;-69
2022/10/16 04:46:42;;;;;;;3.30;0.80;;;12.30;99.90;;;;;;6243926;22;20203;-70
2022/10/16 04:49:09;;;;;;;0.60;0.60;;;12.30;99.90;;;;;;6243556;23;20429;-68
2022/10/16 04:51:35;;;;;;;0.85;0.85;;;12.40;99.90;;;;;;6243563;23;20185;-69
2022/10/16 04:54:03;;;;;;;0.93;0.93;;;12.40;99.90;;;;;;6241774;23;20208;-69
2022/10/16 04:56:30;;;;;;;1.38;1.13;;;12.40;99.90;;;;;;6242592;22;20202;-70
2022/10/16 04:58:57;;;;;;;1.10;1.10;;;12.40;99.90;;;;;;6244116;23;20183;-70
2022/10/16 05:01:24;;;;;;;0.73;0.73;;;12.40;99.90;;;;;;6243509;23;20179;-70
2022/10/16 05:03:50;;;;;;;0.67;0.67;;;12.40;99.90;;;;;;6242600;23;20175;-69
2022/10/16 05:06:17;;;;;;;0.50;0.50;;;12.40;99.90;;;;;;6243124;22;20961;-69
2022/10/16 05:08:44;;;;;;;1.77;1.67;;;12.50;99.90;;;;;;6243454;23;20973;-69
2022/10/16 05:11:12;;;;;;;0.87;0.80;;;12.50;99.90;;;;;;6243694;23;20924;-69
2022/10/16 05:13:38;;;;;;;1.27;1.27;;;12.50;99.90;;;;;;6243090;23;20724;-68
2022/10/16 05:16:06;;;;;;;0.90;0.90;;;12.50;99.90;;;;;;6243754;23;20759;-68
2022/10/16 05:18:32;;;;;;;1.23;0.80;;;12.50;99.90;;;;;;6243496;23;20428;-67
2022/10/16 05:20:59;;;;;;;1.63;1.23;;;12.50;99.90;;;;;;6242609;23;20429;-68
2022/10/16 05:23:26;;;;;;;1.70;1.60;;;12.50;99.90;;;;;;6243063;23;20211;-67
2022/10/16 05:25:58;;;;;;;0.83;0.83;;;12.50;99.90;;;;;;6242960;23;20421;-67
2022/10/16 05:28:26;;;;;;;0.70;0.70;;;12.60;99.90;;;;;;6244269;22;20441;-67
2022/10/16 05:30:53;;;;;;;0.70;0.70;;;12.60;99.90;;;;;;6242996;23;20429;-67
2022/10/16 05:33:21;;;;;;;1.73;1.52;;;12.50;99.90;;;;;;6243792;23;20441;-68
2022/10/16 05:35:47;;;;;;;9.48;1.25;;;12.50;99.90;;;;;;6242967;23;20182;-68
2022/10/16 05:38:14;;;;;;;0.80;0.80;;;12.60;99.90;;;;;;6243860;22;20209;-67
2022/10/16 05:40:41;;;;;;;0.80;0.80;;;12.50;99.90;;;;;;6242662;23;20193;-69
2022/10/16 05:43:08;;;;;;;0.98;0.98;;;12.50;99.90;;;;;;6243239;23;20434;-69
2022/10/16 05:45:35;;;;;;;1.10;0.67;;;12.50;99.90;;;;;;6244025;23;20187;-68
2022/10/16 05:48:02;;;;;;;1.42;1.42;;;12.50;99.90;;;;;;6243275;22;20445;-68
2022/10/16 05:50:29;;;;;;;0.70;0.70;;;12.50;99.90;;;;;;6243086;23;20559;-69
2022/10/16 05:52:55;;;;;;;0.60;0.60;;;12.50;99.90;;;;;;6243046;23;20691;-69
2022/10/16 05:55:22;;;;;;;0.95;0.95;;;12.50;99.90;;;;;;6243197;23;20912;-69
2022/10/16 05:57:49;;;;;;;1.65;0.73;;;12.50;99.90;;;;;;6244126;22;20214;-68
2022/10/16 06:00:15;;;;;;;1.00;1.00;;;12.50;99.90;;;;;;6242537;23;20182;-68
2022/10/16 06:02:43;;;;;;;1.02;1.02;;;12.50;99.90;;;;;;6243104;23;20179;-69
2022/10/16 06:05:10;;;;;;;0.77;0.77;;;12.50;99.90;;;;;;6243839;23;20187;-68
2022/10/16 06:07:37;;;;;;;1.92;1.58;;;12.50;99.90;;;;;;6241101;22;20262;-68
2022/10/16 06:10:05;;;;;;;1.92;0.98;;;12.50;99.90;;;;;;6242082;23;20179;-69
2022/10/16 06:12:32;;;;;;;1.20;1.17;;;12.50;99.90;;;;;;6243260;23;20194;-69
2022/10/16 06:14:59;;;;;;;0.90;0.90;;;12.50;99.90;;;;;;6243006;23;20210;-68
2022/10/16 06:17:25;;;;;;;1.20;1.20;;;12.50;99.90;;;;;;6242774;22;20548;-69
2022/10/16 06:19:53;;;;;;;1.48;0.98;;;12.50;99.90;;;;;;6243840;23;20490;-69
2022/10/16 06:22:20;;;;;;;1.10;1.10;;;12.50;99.90;;;;;;6240259;23;20539;-69
2022/10/16 06:24:47;;;;;;;1.08;1.05;;;12.50;99.90;;;;;;6242954;23;20176;-69
2022/10/16 06:27:14;;;;;;;1.73;0.60;;;12.60;99.90;;;;;;6243230;22;20365;-69
2022/10/16 06:29:40;;;;;;;1.40;1.40;;;12.60;99.90;;;;;;6243217;23;20430;-69
2022/10/16 06:32:07;;;;;;;0.73;0.73;;;12.50;99.90;;;;;;6240891;23;20427;-69
2022/10/16 06:34:34;;;;;;;4.22;0.85;;;12.50;99.90;;;;;;6242279;23;20452;-69
2022/10/16 06:37:02;;;;;;;0.90;0.88;;;12.50;99.90;;;;;;6242143;22;20221;-69
2022/10/16 06:39:28;;;;;;;1.08;1.08;;;12.50;99.90;;;;;;6243145;23;20198;-69
2022/10/16 06:41:55;;;;;;;0.85;0.85;;;12.50;99.90;;;;;;6243012;23;20281;-69
2022/10/16 06:44:22;;;;;;;0.88;0.88;;;12.50;99.90;;;;;;6242741;23;20177;-69
2022/10/16 06:46:48;;;;;;;1.23;1.00;;;12.50;99.90;;;;;;6243257;22;20214;-68
2022/10/16 06:49:21;;;;;;;0.90;0.87;;;12.50;99.90;;;;;;6242967;23;20648;-68
2022/10/16 06:51:47;;;;;;;0.73;0.73;;;12.50;99.90;;;;;;6242720;23;20453;-69
2022/10/16 06:54:16;;;;;;;2.33;1.10;;;12.50;99.90;;;;;;6242196;23;20445;-69
2022/10/16 06:56:42;;;;;;;2.30;1.27;;;12.50;99.90;;;;;;6243285;22;20516;-68
2022/10/16 06:59:09;;;;;;;0.87;0.87;;;12.50;99.90;;;;;;6243145;23;20423;-69
2022/10/16 07:01:35;;;;;;;0.87;0.87;;;12.50;99.90;;;;;;6242990;23;20422;-69
2022/10/16 07:04:03;;;;;;;1.03;1.00;;;12.50;99.90;;;;;;6242247;23;20418;-69
2022/10/16 07:06:33;;;;;;;0.47;0.47;;;12.50;99.90;;;;;;6242791;22;20692;-69
2022/10/16 07:09:03;;;;;;;0.70;0.70;;;12.50;99.90;;;;;;6241567;23;20925;-69
2022/10/16 07:11:31;;;;;;;2.42;1.17;;;12.50;99.90;;;;;;6242397;23;20422;-69
2022/10/16 07:13:58;;;;;;;0.90;0.90;;;12.50;99.90;;;;;;6242504;23;20195;-69
2022/10/16 07:16:26;;;;;;;1.03;0.97;;;12.50;99.90;;;;;;6242820;22;20203;-69
2022/10/16 07:18:57;;;;;;;6.43;1.58;;;12.60;99.90;;;;;;6240274;23;20436;-69
2022/10/16 07:21:26;;;;;;;0.90;0.90;;;12.60;99.90;;;;;;6241939;23;20163;-68
2022/10/16 07:23:53;;;;;;;1.40;1.30;;;12.70;99.90;;;;;;6241764;23;20422;-68
2022/10/16 07:26:20;;;;;;;10.00;1.90;;;12.70;99.90;;;;;;6241634;22;20195;-69
2022/10/16 07:28:48;;;;;;;1.90;1.80;;;12.80;99.90;;;;;;6242227;23;20904;-69
2022/10/16 07:31:16;;;;;;;1.47;1.43;;;12.90;99.90;;;;;;6240783;23;20183;-69
2022/10/16 07:33:45;;;;;;;1.47;1.37;;;12.90;99.90;;;;;;6241676;23;20457;-69
2022/10/16 07:36:12;;;;;;;1.50;1.50;;;12.90;99.90;;;;;;6242106;22;20745;-69
2022/10/16 07:38:39;;;;;;;1.10;1.10;;;13.00;99.90;;;;;;6242789;23;20433;-69
2022/10/16 07:41:08;;;;;;;4.03;1.53;;;13.00;99.90;;;;;;6242479;23;20423;-68
2022/10/16 07:43:34;;;;;;;1.10;1.10;;;13.00;99.90;;;;;;6242236;23;20430;-68
2022/10/16 07:46:03;;;;;;;1.10;1.10;;;13.00;99.90;;;;;;6242330;23;20498;-69
2022/10/16 07:48:31;;;;;;;1.00;0.90;;;13.10;99.90;;;;;;6242553;22;20779;-69
2022/10/16 07:50:59;;;;;;;1.93;1.83;;;13.20;99.90;;;;;;6242009;23;20422;-69
2022/10/16 07:53:26;;;;;;;8.87;1.63;;;13.30;99.90;;;;;;6241732;23;20466;-69
2022/10/16 07:55:53;;;;;;;0.97;0.97;;;13.40;99.90;;;;;;6241797;23;20425;-69
2022/10/16 07:58:19;;;;;;;2.30;1.10;;;13.50;99.90;;;;;;6241844;22;20448;-69
2022/10/16 08:00:46;;;;;;;0.87;0.87;;;13.60;99.90;;;;;;6241747;23;20729;-69
2022/10/16 08:03:14;;;;;;;1.63;1.63;;;13.70;99.90;;;;;;6242066;23;20423;-69
2022/10/16 08:05:41;;;;;;;1.50;1.40;;;13.80;99.90;;;;;;6241366;23;20422;-69
2022/10/16 08:08:12;;;;;;;0.80;0.80;;;13.90;99.90;;;;;;6242577;22;20442;-68
2022/10/16 08:10:39;;;;;;;1.00;1.00;;;14.00;99.90;;;;;;6240837;23;20740;-68
2022/10/16 08:13:05;;;;;;;0.80;0.80;;;14.20;99.90;;;;;;6241967;23;20739;-68
2022/10/16 08:15:32;;;;;;;0.57;0.57;;;14.40;99.90;;;;;;6242248;23;20961;-69
2022/10/16 08:18:00;;;;;;;1.10;1.10;;;14.60;99.90;;;;;;6242084;22;20462;-69
2022/10/16 08:20:29;;;;;;;1.03;1.03;;;14.70;99.90;;;;;;6241026;23;20430;-67
2022/10/16 08:22:56;;;;;;;1.07;0.63;;;14.90;99.90;;;;;;6241520;23;20427;-67
2022/10/16 08:25:23;;;;;;;1.33;1.33;;;15.00;99.90;;;;;;6241134;23;20502;-69
2022/10/16 08:27:50;;;;;;;0.87;0.87;;;15.00;99.90;;;;;;6241905;22;20447;-68
2022/10/16 08:30:18;;;;;;;4.83;0.73;;;15.10;99.90;;;;;;6241047;23;20445;-68
2022/10/16 08:32:45;;;;;;;1.33;1.30;;;15.10;99.90;;;;;;6241498;23;20906;-68
2022/10/16 08:35:13;;;;;;;0.83;0.83;;;15.10;99.90;;;;;;6241665;23;20451;-67
2022/10/16 08:37:41;;;;;;;0.77;0.77;;;15.20;99.90;;;;;;6241318;22;20491;-67
2022/10/16 08:40:18;;;;;;;1.00;1.00;;;15.30;99.90;;;;;;6241256;23;20423;-67
2022/10/16 08:43:14;;;;;;;0.80;0.80;;;15.30;99.90;;;;;;6242625;23;20415;-67
2022/10/16 08:45:52;;;;;;;3.13;0.60;;;15.30;99.90;;;;;;6233775;23;20427;-67
2022/10/16 08:48:25;;;;;;;0.80;0.80;;;15.50;99.90;;;;;;6241849;22;20441;-67
2022/10/16 08:50:53;;;;;;;0.90;0.90;;;15.50;99.90;;;;;;6240565;23;20411;-66
2022/10/16 08:53:25;;;;;;;1.87;0.70;;;15.50;99.90;;;;;;6241082;23;20428;-68
2022/10/16 08:55:54;;;;;;;0.67;0.67;;;15.50;99.90;;;;;;6240243;23;20436;-68
2022/10/16 08:58:22;;;;;;;0.67;0.67;;;15.50;99.90;;;;;;6243047;22;20940;-68
2022/10/16 09:00:53;;;;;;;0.50;0.50;;;15.40;99.90;;;;;;6244514;23;20523;-68
2022/10/16 09:03:32;;;;;;;0.93;0.93;;;15.40;99.90;;;;;;6244362;23;20408;-67
2022/10/16 09:06:14;;;;;;;1.10;1.10;;;15.50;99.90;;;;;;6244269;23;20520;-68
2022/10/16 09:08:55;;;;;;;0.80;0.80;;;15.50;99.90;;;;;;6243405;23;20411;-68
2022/10/16 09:11:33;;;;;;;0.97;0.97;;;15.50;99.90;;;;;;6243625;23;20408;-68
2022/10/16 09:14:07;;;;;;;0.80;0.80;;;15.60;99.90;;;;;;6244353;23;20476;-68
2022/10/16 09:16:37;;;;;;;1.00;1.00;;;15.70;99.90;;;;;;6244124;22;20447;-68
2022/10/16 09:19:11;;;;;;;0.33;0.33;;;15.70;99.90;;;;;;6244091;23;20472;-68
2022/10/16 09:21:43;;;;;;;0.50;0.50;;;15.80;99.90;;;;;;6243058;23;20419;-67
2022/10/16 09:24:15;;;;;;;0.70;0.70;;;15.80;99.90;;;;;;6243578;23;20403;-67
2022/10/16 09:26:42;;;;;;;0.40;0.40;;;15.90;99.90;;;;;;6243635;22;20918;-67
2022/10/16 09:29:12;;;;;;;0.40;0.40;;;16.00;99.90;;;;;;6243276;23;20431;-68
2022/10/16 09:31:39;;;;;;;0.30;0.30;;;16.00;99.90;;;;;;6244095;23;20420;-69
2022/10/16 09:34:08;;;;;;;0.60;0.60;;;16.10;99.90;;;;;;6243337;23;20429;-69
2022/10/16 09:36:41;;;;;;;0.40;0.40;;;16.10;99.90;;;;;;6242263;22;20451;-69
2022/10/16 09:39:11;;;;;;;0.80;0.80;;;16.20;99.90;;;;;;6241925;23;20408;-68
2022/10/16 09:41:40;;;;;;;0.60;0.60;;;16.30;99.90;;;;;;6243513;23;20519;-68
2022/10/16 09:44:19;;;;;;;1.03;1.03;;;16.30;99.90;;;;;;6242987;23;20799;-68
2022/10/16 09:46:46;;;;;;;2.13;0.53;;;16.50;99.90;;;;;;6242450;22;20803;-68
2022/10/16 09:49:22;;;;;;;0.50;0.50;;;16.50;99.90;;;;;;6242498;23;20964;-68
2022/10/16 09:51:49;;;;;;;0.20;0.20;;;16.60;99.90;;;;;;6243159;23;20933;-67
2022/10/16 09:54:18;;;;;;;0.60;0.60;;;16.60;99.90;;;;;;6242423;23;20420;-68
2022/10/16 09:56:49;;;;;;;0.50;0.50;;;16.60;99.90;;;;;;6244231;22;20748;-68
2022/10/16 09:59:17;;;;;;;0.57;0.57;;;16.70;99.90;;;;;;6243750;23;20408;-68
2022/10/16 10:01:48;;;;;;;0.30;0.30;;;16.70;99.90;;;;;;6243210;23;20426;-67
2022/10/16 10:04:15;;;;;;;3.30;0.60;;;16.80;99.90;;;;;;6242922;23;20405;-68
2022/10/16 10:06:45;;;;;;;0.40;0.40;;;16.80;99.90;;;;;;6242304;22;20504;-67
2022/10/16 10:09:22;;;;;;;0.40;0.40;;;16.90;99.90;;;;;;6242718;23;20417;-67
2022/10/16 10:11:54;;;;;;;0.50;0.27;;;16.90;99.90;;;;;;6243896;23;20410;-67
2022/10/16 10:14:27;;;;;;;1.13;0.40;;;17.00;99.90;;;;;;6242609;23;20413;-67
2022/10/16 10:17:10;;;;;;;1.60;0.50;;;17.00;99.90;;;;;;6242016;22;20481;-68
2022/10/16 10:19:41;;;;;;;7.63;0.60;;;17.10;99.90;;;;;;6243461;23;20407;-67
2022/10/16 10:22:18;;;;;;;0.60;0.60;;;17.10;99.90;;;;;;6242712;23;20446;-68
2022/10/16 10:24:56;;;;;;;5.70;3.30;;;17.20;99.90;;;;;;6242781;23;20745;-69
2022/10/16 10:27:30;;;;;;;1.10;0.77;;;17.20;99.90;;;;;;6243668;22;20442;-67
2022/10/16 10:30:03;;;;;;;1.13;0.80;;;17.20;99.90;;;;;;6243948;23;20413;-67
2022/10/16 10:32:38;;;;;;;1.20;0.70;;;17.30;99.90;;;;;;6246354;23;20881;-68
2022/10/16 10:35:17;;;;;;;0.50;0.50;;;17.40;99.90;;;;;;6245968;23;20437;-68
2022/10/16 10:37:55;;;;;;;0.77;0.53;;;17.40;99.90;;;;;;6248449;22;20441;-68
2022/10/16 10:40:40;;;;;;;0.40;0.40;;;17.50;99.90;;;;;;6243521;23;20764;-68
2022/10/16 10:43:19;;;;;;;1.43;1.03;;;17.50;99.90;;;;;;6242719;23;20771;-69
2022/10/16 10:45:48;;;;;;;0.63;0.50;;;17.50;99.90;;;;;;6242812;23;20452;-68
2022/10/16 10:48:28;;;;;;;0.20;0.20;;;17.50;99.90;;;;;;6242648;22;20447;-69
2022/10/16 10:50:58;;;;;;;0.40;0.40;;;17.50;99.90;;;;;;6242641;23;20707;-68
2022/10/16 10:53:37;;;;;;;0.20;0.20;;;17.60;99.90;;;;;;6243059;23;20445;-68
2022/10/16 10:56:16;;;;;;;0.30;0.30;;;17.70;99.90;;;;;;6241807;23;20505;-69
2022/10/16 10:59:16;;;;;;;0.37;0.37;;;17.70;99.90;;;;;;6239706;23;20441;-68
2022/10/16 11:01:50;;;;;;;0.20;0.20;;;17.70;99.90;;;;;;6238589;23;20404;-67
2022/10/16 11:04:47;;;;;;;1.80;0.30;;;17.80;99.90;;;;;;6240869;23;20404;-69
2022/10/16 11:07:21;;;;;;;0.27;0.27;;;17.80;99.90;;;;;;6239420;22;20451;-69
2022/10/16 11:09:51;;;;;;;0.20;0.20;;;17.80;99.90;;;;;;6242188;23;20406;-68
2022/10/16 11:12:23;;;;;;;0.50;0.50;;;17.90;99.90;;;;;;6242066;23;20429;-69
2022/10/16 11:14:57;;;;;;;0.30;0.30;;;18.00;99.90;;;;;;6242206;23;20437;-68
2022/10/16 11:17:29;;;;;;;2.10;0.47;;;18.00;99.90;;;;;;6242233;22;20454;-68
2022/10/16 11:19:59;;;;;;;1.17;0.40;;;18.10;99.90;;;;;;6242386;23;20497;-67
2022/10/16 11:22:31;;;;;;;1.80;0.40;;;18.20;99.90;;;;;;6241643;23;20417;-68
2022/10/16 11:25:05;;;;;;;0.30;0.30;;;18.30;99.90;;;;;;6242162;23;20403;-67
2022/10/16 11:27:39;;;;;;;0.30;0.30;;;18.40;99.90;;;;;;6241542;22;20441;-68
2022/10/16 11:30:14;;;;;;;0.60;0.43;;;18.50;99.90;;;;;;6242430;23;20413;-68
2022/10/16 11:32:53;;;;;;;0.50;0.50;;;18.50;99.90;;;;;;6241831;23;20417;-68
2022/10/16 11:35:25;;;;;;;3.40;0.30;;;18.50;99.90;;;;;;6240881;23;20764;-68
2022/10/16 11:37:54;;;;;;;0.30;0.20;;;18.70;99.90;;;;;;6242750;22;20465;-67
2022/10/16 11:40:26;;;;;;;1.60;0.43;;;18.80;99.90;;;;;;6241574;23;20977;-68
2022/10/16 11:42:58;;;;;;;0.20;0.20;;;18.90;99.90;;;;;;6241733;23;20874;-68
2022/10/16 11:45:31;;;;;;;0.97;0.20;;;19.00;99.90;;;;;;6240727;23;20708;-69
2022/10/16 11:48:03;;;;;;;0.23;0.23;;;19.10;99.90;;;;;;6242203;22;20447;-68
2022/10/16 11:50:33;;;;;;;0.77;0.60;;;19.00;99.90;;;;;;6241600;23;20408;-68
2022/10/16 11:53:10;;;;;;;0.83;0.33;;;19.00;99.90;;;;;;6242058;23;20408;-69
2022/10/16 11:55:40;;;;;;;0.33;0.33;;;18.90;99.90;;;;;;6241075;23;20510;-69
2022/10/16 11:58:14;;;;;;;0.40;0.40;;;18.80;99.90;;;;;;6242958;22;20443;-68
2022/10/16 12:00:47;;;;;;;0.37;0.37;;;18.70;99.90;;;;;;6241266;23;20414;-68
2022/10/16 12:03:23;;;;;;;0.43;0.40;;;18.70;99.90;;;;;;6241857;23;20405;-68
2022/10/16 12:06:05;;;;;;;0.40;0.40;;;18.60;99.90;;;;;;6241679;23;20422;-66
2022/10/16 12:08:35;;;;;;;0.20;0.20;;;18.70;99.90;;;;;;6242518;22;20446;-67
2022/10/16 12:11:09;;;;;;;1.57;0.40;;;18.80;99.90;;;;;;6242323;23;20466;-67
2022/10/16 12:13:39;;;;;;;0.80;0.33;;;18.80;99.90;;;;;;6241104;23;20406;-68
2022/10/16 12:16:22;;;;;;;0.30;0.30;;;18.80;99.90;;;;;;6242162;23;20458;-68
2022/10/16 12:18:50;;;;;;;0.33;0.33;;;18.70;99.90;;;;;;6242201;23;20397;-68
2022/10/16 12:21:19;;;;;;;5.90;0.40;;;18.70;99.90;;;;;;6240914;23;20932;-67
2022/10/16 12:23:50;;;;;;;0.37;0.37;;;18.70;99.90;;;;;;6241304;23;20418;-66
2022/10/16 12:26:25;;;;;;;1.43;0.63;;;18.60;99.90;;;;;;6242590;22;20422;-67
2022/10/16 12:28:53;;;;;;;0.20;0.20;;;18.60;99.90;;;;;;6242476;23;20403;-67
2022/10/16 12:31:20;;;;;;;5.40;1.03;;;18.60;99.90;;;;;;6242098;23;20422;-65
2022/10/16 12:33:58;;;;;;;0.60;0.53;;;18.70;99.90;;;;;;6242201;23;20426;-67
2022/10/16 12:36:30;;;;;;;0.30;0.30;;;18.70;99.90;;;;;;6241040;22;20431;-66
2022/10/16 12:38:57;;;;;;;1.47;0.40;;;18.80;99.90;;;;;;6244967;23;20773;-68
2022/10/16 12:41:28;;;;;;;0.77;0.30;;;18.70;99.90;;;;;;6244545;23;20745;-66
2022/10/16 12:43:57;;;;;;;4.13;0.87;;;18.60;99.90;;;;;;6243167;23;20411;-68
2022/10/16 12:46:36;;;;;;;0.47;0.47;;;18.50;99.90;;;;;;6244527;22;20423;-67
2022/10/16 12:49:21;;;;;;;0.83;0.60;;;18.60;99.90;;;;;;6243906;23;20410;-66
2022/10/16 12:51:47;;;;;;;1.23;0.93;;;18.60;99.90;;;;;;6243747;23;20407;-67
2022/10/16 12:54:16;;;;;;;0.87;0.87;;;18.60;99.90;;;;;;6243440;23;20430;-68
2022/10/16 12:56:59;;;;;;;0.67;0.67;;;18.60;99.90;;;;;;6244469;22;20453;-67
2022/10/16 12:59:36;;;;;;;0.40;0.40;;;18.70;99.90;;;;;;6243193;23;20407;-68
2022/10/16 13:02:32;;;;;;;0.50;0.50;;;18.60;99.90;;;;;;6243691;23;20474;-68
2022/10/16 13:05:19;;;;;;;0.40;0.37;;;18.60;99.90;;;;;;6244545;23;20418;-67
2022/10/16 13:08:06;;;;;;;0.60;0.60;;;18.50;99.90;;;;;;6244257;22;20438;-68
2022/10/16 13:10:40;;;;;;;2.47;0.50;;;18.50;99.90;;;;;;6243767;23;20403;-65
2022/10/16 13:13:41;;;;;;;0.50;0.50;;;18.30;99.90;;;;;;6243338;23;20403;-65
2022/10/16 13:16:20;;;;;;;0.50;0.50;;;18.30;99.90;;;;;;6243690;23;20430;-67
2022/10/16 13:19:00;;;;;;;0.90;0.90;;;18.30;99.90;;;;;;6244173;23;20516;-66
2022/10/16 13:21:37;;;;;;;0.40;0.40;;;18.20;99.90;;;;;;6243563;23;20406;-66
2022/10/16 13:24:14;;;;;;;0.40;0.40;;;18.10;99.90;;;;;;6242599;23;20406;-69
2022/10/16 13:26:47;;;;;;;0.30;0.30;;;18.10;99.90;;;;;;6243944;22;20482;-69
2022/10/16 13:29:14;;;;;;;0.60;0.60;;;18.10;99.90;;;;;;6245706;23;20403;-68
2022/10/16 13:31:45;;;;;;;0.60;0.60;;;18.20;99.90;;;;;;6247727;23;20427;-67
2022/10/16 13:34:15;;;;;;;1.03;0.47;;;18.30;99.90;;;;;;6246609;23;20426;-67
2022/10/16 13:36:45;;;;;;;0.60;0.50;;;18.40;99.90;;;;;;6244621;22;20449;-67
2022/10/16 13:39:14;;;;;;;0.40;0.40;;;18.40;99.90;;;;;;6242991;23;20905;-67
2022/10/16 13:41:41;;;;;;;3.20;0.30;;;18.50;99.90;;;;;;6243490;23;20422;-68
2022/10/16 13:44:15;;;;;;;0.43;0.43;;;18.50;99.90;;;;;;6242781;23;20433;-70
2022/10/16 13:46:43;;;;;;;0.73;0.40;;;18.40;99.90;;;;;;6243575;22;20948;-68
2022/10/16 13:49:15;;;;;;;0.33;0.33;;;18.30;99.90;;;;;;6244454;23;20445;-68
2022/10/16 13:51:42;;;;;;;0.87;0.70;;;18.20;99.90;;;;;;6243985;23;20422;-68
2022/10/16 13:54:11;;;;;;;1.20;0.50;;;18.20;99.90;;;;;;6243398;23;20430;-67
2022/10/16 13:56:40;;;;;;;0.30;0.30;;;18.20;99.90;;;;;;6243736;22;20454;-69
2022/10/16 13:59:22;;;;;;;0.33;0.33;;;18.30;99.90;;;;;;6243384;23;20422;-68
2022/10/16 14:01:53;;;;;;;0.40;0.40;;;18.40;99.90;;;;;;6243001;23;20411;-70
2022/10/16 14:04:20;;;;;;;0.40;0.40;;;18.50;99.90;;;;;;6242710;23;20531;-68
2022/10/16 14:06:51;;;;;;;0.40;0.40;;;18.60;99.90;;;;;;6243068;22;20443;-71
2022/10/16 14:09:23;;;;;;;0.50;0.50;;;18.70;99.90;;;;;;6243524;23;20414;-69
2022/10/16 14:11:52;;;;;;;0.30;0.30;;;18.90;99.90;;;;;;6243843;23;20709;-67
2022/10/16 14:14:20;;;;;;;0.50;0.50;;;19.00;99.90;;;;;;6243610;23;20748;-68
2022/10/16 14:16:47;;;;;;;0.37;0.37;;;18.90;99.90;;;;;;6242240;22;20454;-67
2022/10/16 14:19:21;;;;;;;0.50;0.37;;;18.90;99.90;;;;;;6243377;23;20423;-69
2022/10/16 14:21:48;;;;;;;0.30;0.30;;;18.80;99.90;;;;;;6243458;23;20608;-68
2022/10/16 14:24:26;;;;;;;0.37;0.37;;;18.70;99.90;;;;;;6242618;23;20430;-68
2022/10/16 14:26:54;;;;;;;0.33;0.33;;;18.70;99.90;;;;;;6242351;22;20442;-68
2022/10/16 14:29:21;;;;;;;0.60;0.60;;;18.60;99.90;;;;;;6243111;23;20429;-67
2022/10/16 14:31:56;;;;;;;0.27;0.27;;;18.50;99.90;;;;;;6244039;23;20529;-68
2022/10/16 14:34:30;;;;;;;0.40;0.40;;;18.50;99.90;;;;;;6244009;23;20409;-68
2022/10/16 14:36:59;;;;;;;0.30;0.30;;;18.50;99.90;;;;;;6244993;22;20480;-67
2022/10/16 14:39:26;;;;;;;0.40;0.40;;;18.50;99.90;;;;;;6244943;23;20429;-65
2022/10/16 14:41:57;;;;;;;0.47;0.47;;;18.50;99.90;;;;;;6245520;23;20447;-65
2022/10/16 14:44:28;;;;;;;1.90;0.47;;;18.50;99.90;;;;;;6245007;23;20412;-65
2022/10/16 14:46:55;;;;;;;2.67;1.00;;;18.50;99.90;;;;;;6245556;22;20545;-68
2022/10/16 14:49:24;;;;;;;1.87;1.77;;;18.40;99.90;;;;;;6245345;23;20426;-65
2022/10/16 14:51:52;;;;;;;2.10;2.10;;;18.30;99.90;;;;;;6244896;23;20429;-68
2022/10/16 14:54:19;;;;;;;0.50;0.50;;;18.20;99.90;;;;;;6244320;23;20895;-67
2022/10/16 14:56:50;;;;;;;1.70;1.27;;;18.20;99.90;;;;;;6244650;22;20455;-66
2022/10/16 14:59:20;;;;;;;0.70;0.70;;;18.10;99.90;;;;;;6245624;23;20411;-67
2022/10/16 15:01:47;;;;;;;0.60;0.60;;;18.10;99.90;;;;;;6245568;23;20521;-70
2022/10/16 15:04:15;;;;;;;0.57;0.57;;;18.00;99.90;;;;;;6245517;23;20445;-66
2022/10/16 15:06:42;;;;;;;1.70;0.50;;;18.00;99.90;;;;;;6244724;22;20475;-67
2022/10/16 15:09:10;;;;;;;1.40;0.50;;;18.00;99.90;;;;;;6245516;23;20418;-66
2022/10/16 15:11:37;;;;;;;6.70;1.00;;;17.90;99.90;;;;;;6244680;23;20441;-67
2022/10/16 15:14:04;;;;;;;0.30;0.30;;;17.80;99.90;;;;;;6242519;23;20429;-67
2022/10/16 15:16:31;;;;;;;3.03;0.63;;;17.80;99.90;;;;;;6243544;22;20455;-66
2022/10/16 15:18:58;;;;;;;0.87;0.83;;;17.70;99.90;;;;;;6244484;23;20405;-67
2022/10/16 15:21:27;;;;;;;0.63;0.63;;;17.70;99.90;;;;;;6244740;23;20421;-67
2022/10/16 15:23:54;;;;;;;0.40;0.40;;;17.60;99.90;;;;;;6244237;23;20425;-67
2022/10/16 15:26:22;;;;;;;0.30;0.30;;;17.50;99.90;;;;;;6244851;22;20426;-66
2022/10/16 15:28:49;;;;;;;0.30;0.30;;;17.50;99.90;;;;;;6241425;23;20899;-66
2022/10/16 15:31:16;;;;;;;0.70;0.57;;;17.40;99.90;;;;;;6244591;23;20422;-68
2022/10/16 15:33:43;;;;;;;2.00;0.67;;;17.40;99.90;;;;;;6244421;23;20914;-67
2022/10/16 15:36:09;;;;;;;1.23;0.93;;;17.30;99.90;;;;;;6243100;23;20450;-69
2022/10/16 15:38:36;;;;;;;0.50;0.50;;;17.20;99.90;;;;;;6244199;22;20545;-68
2022/10/16 15:41:03;;;;;;;0.50;0.50;;;17.20;99.90;;;;;;6242522;23;20830;-74
2022/10/16 15:43:31;;;;;;;0.50;0.50;;;17.10;99.90;;;;;;6242829;23;20872;-68
2022/10/16 15:46:03;;;;;;;4.30;2.13;;;17.00;99.90;;;;;;6242777;23;20432;-70
2022/10/16 15:48:30;;;;;;;0.70;0.53;;;17.00;99.90;;;;;;6244064;22;20532;-68
2022/10/16 15:50:56;;;;;;;0.60;0.60;;;16.90;99.90;;;;;;6244497;23;20422;-67
2022/10/16 15:53:23;;;;;;;0.80;0.80;;;16.80;99.90;;;;;;6245626;23;20426;-66
2022/10/16 15:55:50;;;;;;;1.60;0.97;;;16.70;99.90;;;;;;6242217;23;20425;-68
2022/10/16 15:58:17;;;;;;;3.27;0.93;;;16.60;99.90;;;;;;6244143;22;20840;-68
2022/10/16 16:00:45;;;;;;;1.00;1.00;;;16.50;99.90;;;;;;6243800;23;20420;-69
2022/10/16 16:03:12;;;;;;;2.00;1.40;;;16.50;99.90;;;;;;6243763;23;20525;-67
2022/10/16 16:05:40;;;;;;;2.20;1.53;;;16.40;99.90;;;;;;6243026;23;20422;-69
2022/10/16 16:08:06;;;;;;;0.77;0.77;;;16.30;99.90;;;;;;6244648;22;20491;-70
2022/10/16 16:10:42;;;;;;;4.93;3.20;;;16.20;99.90;;;;;;6245351;23;20427;-68
2022/10/16 16:13:09;;;;;;;0.80;0.80;;;16.20;99.90;;;;;;6246818;23;20727;-68
2022/10/16 16:15:39;;;;;;;2.03;0.97;;;16.10;99.90;;;;;;6245706;23;20415;-68
2022/10/16 16:18:09;;;;;;;1.03;0.67;;;16.00;99.90;;;;;;6242859;22;20446;-68
2022/10/16 16:20:35;;;;;;;1.00;1.00;;;15.90;99.90;;;;;;6241729;23;20430;-67
2022/10/16 16:23:03;;;;;;;1.07;1.07;;;15.80;99.90;;;;;;6242854;23;20443;-66
2022/10/16 16:25:30;;;;;;;1.40;1.30;;;15.70;99.90;;;;;;6242826;23;20536;-70
2022/10/16 16:27:57;;;;;;;1.03;0.80;;;15.60;99.90;;;;;;6242687;22;20496;-69
2022/10/16 16:30:24;;;;;;;3.30;1.13;;;15.50;99.90;;;;;;6242439;23;20838;-68
2022/10/16 16:32:50;;;;;;;12.13;1.47;;;15.40;99.90;;;;;;6242533;23;20430;-66
2022/10/16 16:35:19;;;;;;;1.53;1.00;;;15.30;99.90;;;;;;6241806;23;20434;-67
2022/10/16 16:37:45;;;;;;;1.33;1.23;;;15.20;99.90;;;;;;6242119;22;20457;-68
2022/10/16 16:40:12;;;;;;;1.60;1.10;;;15.10;99.90;;;;;;6241089;23;20920;-66
2022/10/16 16:42:39;;;;;;;1.07;1.07;;;15.10;99.90;;;;;;6242016;23;20433;-67
2022/10/16 16:45:07;;;;;;;1.07;1.07;;;15.00;99.90;;;;;;6242165;23;20424;-69
2022/10/16 16:47:33;;;;;;;1.37;1.37;;;14.90;99.90;;;;;;6242010;22;20511;-69
2022/10/16 16:50:04;;;;;;;2.47;2.37;;;14.80;99.90;;;;;;6242318;23;20445;-67
2022/10/16 16:52:32;;;;;;;1.43;1.33;;;14.70;99.90;;;;;;6241682;23;20404;-65
2022/10/16 16:54:59;;;;;;;1.93;1.83;;;14.70;99.90;;;;;;6240836;23;20423;-67
2022/10/16 16:57:25;;;;;;;2.20;2.10;;;14.60;99.90;;;;;;6241178;22;20832;-69
2022/10/16 16:59:52;;;;;;;3.30;3.03;;;14.50;99.90;;;;;;6242384;23;20431;-68
2022/10/16 17:02:19;;;;;;;4.50;3.97;;;14.40;99.90;;;;;;6242081;23;20817;-67
2022/10/16 17:04:46;;;;;;;3.50;3.20;;;14.40;99.90;;;;;;6241671;23;20877;-69